Aérodrome :
LOGIN :

S'inscrire | Disclaimer

   EN    FR    IT 

 










Légende :    VFR   VFR Marginal   IFR   IFR Intensif   IFR Très Intensif
Visi : 
Plafond : 
>= 8 km
>= 3000ft
5 à 8 km
1000 à 3000 ft
1500m à 5 km
500 à 1000 ft
800 à 1500m
200 à 500 ft
< 800m
< 200 ft
Symboles :   Orages  Brouillard  Fortes neiges  Fortes précipitations  Vent > 20 kt
SIGMETs :   Divers  Orages  Givrage  Turbulence  Onde Orograph.  Cendres Volcan.






- Altitude de l'aérodrome : 465 ft
- Code IATA : LEJ


EDDP - Leipzig Halle

DERNIER METAR :
  • 041620Z 13010KT CAVOK 02/M01 Q0993 NOSIG

METARs EXPIRÉS :
  • 041550Z 11011KT CAVOK 02/M01 Q0993 NOSIG
  • 041520Z 11012KT CAVOK 03/M01 Q0992 NOSIG
  • 041450Z 12012KT CAVOK 03/M01 Q0992 NOSIG
  • 041420Z 12011KT CAVOK 03/M01 Q0993 NOSIG
  • 041350Z 12011KT CAVOK 04/M01 Q0992 NOSIG

TAF TAF EDDP
Valide du 04 à 12h jusqu'au 05 à 12h UTC


041100Z 0412/0512 14007KT CAVOK
BECMG 0415/0417 08008KT
BECMG 0505/0507 17005KT



MET'MAP, la Météo Aéronautique d'un coup d'oeil ! - Copyright ORBIFLY Décembre 2007 - Disclaimer

ORBIFLY MET'MAP TEAM :

Programmation & Développement : Alexandra Zaïnal
Sur une idée originale de : Baudouin d'Aumeries
Assistance à la programmation : Marc-Olivier Méhu
Soutien technique & logistique : Manuel Goepfert

Contact : metmap@orbifly.com




SOURCES & CREDITS :

   NOAA